Time,TemperatureF,DewpointF,PressureIn,WindDirection,WindDirectionDegrees,WindSpeedMPH,WindSpeedGustMPH,Humidity,HourlyPrecipIn,Conditions,Clouds,dailyrainin,SolarRadiationWatts/m^2,SoftwareType,DateUTC
2013-03-31 00:08:00,61.1,52.0,30.19,East,91,0.0,1.0,73,0.00,,,0.00,0,weatherlink.com 1.10,2013-03-31 04:08:00,
2013-03-31 00:23:00,60.8,52.0,30.19,East,91,0.0,0.0,74,0.00,,,0.00,0,weatherlink.com 1.10,2013-03-31 04:23:00,
2013-03-31 00:38:00,60.3,53.0,30.18,East,91,0.0,0.0,76,0.00,,,0.00,0,weatherlink.com 1.10,2013-03-31 04:38:00,
2013-03-31 00:53:00,60.0,53.0,30.17,East,91,0.0,0.0,77,0.00,,,0.00,0,weatherlink.com 1.10,2013-03-31 04:53:00,
2013-03-31 01:08:00,59.8,53.0,30.17,East,91,0.0,0.0,78,0.00,,,0.00,0,weatherlink.com 1.10,2013-03-31 05:08:00,
2013-03-31 01:23:00,59.7,54.0,30.17,East,91,0.0,0.0,80,0.00,,,0.00,0,weatherlink.com 1.10,2013-03-31 05:23:00,
2013-03-31 01:39:00,59.9,54.0,30.16,SE,135,0.0,2.0,81,0.00,,,0.00,0,weatherlink.com 1.10,2013-03-31 05:39:00,
2013-03-31 01:54:00,60.0,54.0,30.16,SE,135,0.0,1.0,81,0.00,,,0.00,0,weatherlink.com 1.10,2013-03-31 05:54:00,
2013-03-31 02:09:00,60.5,54.0,30.16,SE,135,0.0,1.0,80,0.00,,,0.00,0,weatherlink.com 1.10,2013-03-31 06:09:00,
2013-03-31 02:24:00,60.7,54.0,30.15,SE,135,0.0,1.0,79,0.00,,,0.00,0,weatherlink.com 1.10,2013-03-31 06:24:00,
2013-03-31 02:39:00,60.3,54.0,30.15,SE,135,0.0,0.0,81,0.00,,,0.00,0,weatherlink.com 1.10,2013-03-31 06:39:00,
2013-03-31 02:54:00,59.8,54.0,30.15,SE,135,0.0,0.0,82,0.00,,,0.00,0,weatherlink.com 1.10,2013-03-31 06:54:00,
2013-03-31 03:09:00,59.3,55.0,30.15,SE,135,0.0,0.0,85,0.00,,,0.00,0,weatherlink.com 1.10,2013-03-31 07:09:00,
2013-03-31 03:24:00,59.3,55.0,30.14,SE,135,0.0,1.0,84,0.00,,,0.00,0,weatherlink.com 1.10,2013-03-31 07:24:00,
2013-03-31 03:39:00,59.4,55.0,30.14,SE,135,0.0,0.0,85,0.00,,,0.00,0,weatherlink.com 1.10,2013-03-31 07:39:00,
2013-03-31 03:54:00,59.4,55.0,30.13,SE,135,0.0,0.0,85,0.00,,,0.00,0,weatherlink.com 1.10,2013-03-31 07:54:00,
2013-03-31 04:09:00,59.5,56.0,30.14,SE,135,0.0,0.0,87,0.00,,,0.00,0,weatherlink.com 1.10,2013-03-31 08:09:00,
2013-03-31 04:24:00,59.1,55.0,30.13,SE,135,0.0,0.0,86,0.00,,,0.00,0,weatherlink.com 1.10,2013-03-31 08:24:00,
2013-03-31 04:39:00,58.7,55.0,30.13,SE,135,0.0,0.0,86,0.00,,,0.00,0,weatherlink.com 1.10,2013-03-31 08:39:00,
2013-03-31 04:54:00,58.5,55.0,30.13,SE,135,0.0,0.0,88,0.00,,,0.00,0,weatherlink.com 1.10,2013-03-31 08:54:00,
2013-03-31 05:09:00,58.3,55.0,30.13,SE,135,0.0,0.0,89,0.00,,,0.00,0,weatherlink.com 1.10,2013-03-31 09:09:00,
2013-03-31 05:24:00,58.2,55.0,30.13,SE,135,0.0,0.0,89,0.00,,,0.00,0,weatherlink.com 1.10,2013-03-31 09:24:00,
2013-03-31 05:39:00,58.1,55.0,30.13,SE,135,0.0,0.0,90,0.00,,,0.00,0,weatherlink.com 1.10,2013-03-31 09:39:00,
2013-03-31 05:54:00,58.2,55.0,30.14,SSE,155,0.0,2.0,89,0.00,,,0.00,0,weatherlink.com 1.10,2013-03-31 09:54:00,
2013-03-31 06:09:00,58.4,55.0,30.14,SSE,155,0.0,0.0,89,0.00,,,0.00,0,weatherlink.com 1.10,2013-03-31 10:09:00,
2013-03-31 06:24:00,58.7,55.0,30.14,SSE,155,0.0,0.0,88,0.00,,,0.00,0,weatherlink.com 1.10,2013-03-31 10:24:00,
2013-03-31 06:39:00,59.0,56.0,30.14,SSE,155,0.0,1.0,88,0.00,,,0.00,0,weatherlink.com 1.10,2013-03-31 10:39:00,
2013-03-31 06:54:00,59.7,55.0,30.15,SSW,205,0.0,4.0,85,0.00,,,0.00,0,weatherlink.com 1.10,2013-03-31 10:54:00,
2013-03-31 07:09:00,60.4,56.0,30.16,SE,131,0.0,2.0,84,0.00,,,0.00,0,weatherlink.com 1.10,2013-03-31 11:09:00,
2013-03-31 07:24:00,60.7,56.0,30.16,SE,136,0.0,2.0,83,0.00,,,0.00,0,weatherlink.com 1.10,2013-03-31 11:24:00,
2013-03-31 07:39:00,60.9,55.0,30.16,SW,215,0.0,5.0,82,0.00,,,0.00,14,weatherlink.com 1.10,2013-03-31 11:39:00,
2013-03-31 07:54:00,61.1,55.0,30.16,South,188,0.0,5.0,81,0.00,,,0.00,23,weatherlink.com 1.10,2013-03-31 11:54:00,
2013-03-31 08:09:00,61.2,55.0,30.16,SW,214,1.0,4.0,81,0.00,,,0.00,33,weatherlink.com 1.10,2013-03-31 12:09:00,
2013-03-31 08:24:00,61.4,55.0,30.16,SSE,168,3.0,8.0,80,0.00,,,0.00,91,weatherlink.com 1.10,2013-03-31 12:24:00,
2013-03-31 08:39:00,61.9,56.0,30.16,East,86,1.0,5.0,80,0.00,,,0.00,113,weatherlink.com 1.10,2013-03-31 12:39:00,
2013-03-31 08:54:00,62.5,56.0,30.16,South,177,2.0,7.0,79,0.00,,,0.00,339,weatherlink.com 1.10,2013-03-31 12:54:00,
2013-03-31 09:09:00,63.3,57.0,30.16,ESE,112,3.0,5.0,79,0.00,,,0.00,135,weatherlink.com 1.10,2013-03-31 13:09:00,
2013-03-31 09:24:00,64.0,57.0,30.16,SW,226,4.0,9.0,77,0.00,,,0.00,255,weatherlink.com 1.10,2013-03-31 13:24:00,
2013-03-31 09:39:00,65.4,57.0,30.15,SW,219,1.0,8.0,74,0.00,,,0.00,237,weatherlink.com 1.10,2013-03-31 13:39:00,
2013-03-31 09:54:00,66.5,57.0,30.15,SW,229,5.0,7.0,72,0.00,,,0.00,592,weatherlink.com 1.10,2013-03-31 13:54:00,
2013-03-31 10:10:00,68.0,57.0,30.15,SSW,199,5.0,9.0,69,0.00,,,0.00,613,weatherlink.com 1.10,2013-03-31 14:10:00,
2013-03-31 10:25:00,69.5,57.0,30.15,SSE,167,0.0,12.0,65,0.00,,,0.00,172,weatherlink.com 1.10,2013-03-31 14:25:00,
2013-03-31 10:40:00,70.4,56.0,30.15,SSW,211,7.0,11.0,61,0.00,,,0.00,659,weatherlink.com 1.10,2013-03-31 14:40:00,
2013-03-31 10:55:00,72.0,57.0,30.15,SE,140,1.0,13.0,60,0.00,,,0.00,640,weatherlink.com 1.10,2013-03-31 14:55:00,
2013-03-31 11:10:00,73.3,57.0,30.15,SSE,168,0.0,7.0,58,0.00,,,0.00,854,weatherlink.com 1.10,2013-03-31 15:10:00,
2013-03-31 11:25:00,73.4,58.0,30.14,WSW,248,3.0,8.0,58,0.00,,,0.00,747,weatherlink.com 1.10,2013-03-31 15:25:00,
2013-03-31 11:40:00,73.9,57.0,30.15,SSW,200,2.0,11.0,55,0.00,,,0.00,933,weatherlink.com 1.10,2013-03-31 15:40:00,
2013-03-31 11:55:00,74.8,57.0,30.14,SSW,212,3.0,7.0,55,0.00,,,0.00,482,weatherlink.com 1.10,2013-03-31 15:55:00,
2013-03-31 12:10:00,74.4,56.0,30.14,East,101,6.0,11.0,53,0.00,,,0.00,573,weatherlink.com 1.10,2013-03-31 16:10:00,
2013-03-31 12:25:00,74.8,57.0,30.14,South,190,2.0,9.0,55,0.00,,,0.00,988,weatherlink.com 1.10,2013-03-31 16:25:00,
2013-03-31 12:40:00,76.2,58.0,30.13,SSE,160,5.0,10.0,53,0.00,,,0.00,900,weatherlink.com 1.10,2013-03-31 16:40:00,
2013-03-31 12:55:00,77.0,57.0,30.12,ESE,123,4.0,11.0,50,0.00,,,0.00,898,weatherlink.com 1.10,2013-03-31 16:55:00,
2013-03-31 13:10:00,77.5,57.0,30.11,East,101,1.0,14.0,49,0.00,,,0.00,895,weatherlink.com 1.10,2013-03-31 17:10:00,
2013-03-31 13:25:00,78.1,56.0,30.10,SSW,201,3.0,17.0,46,0.00,,,0.00,896,weatherlink.com 1.10,2013-03-31 17:25:00,
2013-03-31 13:40:00,78.7,55.0,30.09,SW,217,4.0,16.0,44,0.00,,,0.00,902,weatherlink.com 1.10,2013-03-31 17:40:00,
2013-03-31 13:55:00,79.3,55.0,30.09,ESE,121,7.0,14.0,44,0.00,,,0.00,893,weatherlink.com 1.10,2013-03-31 17:55:00,
2013-03-31 14:10:00,79.5,53.0,30.08,SSW,211,4.0,14.0,40,0.00,,,0.00,645,weatherlink.com 1.10,2013-03-31 18:10:00,
2013-03-31 14:25:00,79.8,53.0,30.06,SW,236,3.0,14.0,39,0.00,,,0.00,868,weatherlink.com 1.10,2013-03-31 18:25:00,
2013-03-31 14:40:00,80.5,52.0,30.06,SSW,209,1.0,10.0,37,0.00,,,0.00,752,weatherlink.com 1.10,2013-03-31 18:40:00,
2013-03-31 14:56:00,81.2,51.0,30.05,ESE,116,3.0,12.0,35,0.00,,,0.00,860,weatherlink.com 1.10,2013-03-31 18:56:00,
2013-03-31 15:11:00,80.8,51.0,30.04,SSW,195,5.0,14.0,36,0.00,,,0.00,900,weatherlink.com 1.10,2013-03-31 19:11:00,
2013-03-31 15:26:00,81.4,54.0,30.03,WSW,238,8.0,11.0,39,0.00,,,0.00,647,weatherlink.com 1.10,2013-03-31 19:26:00,
2013-03-31 15:41:00,80.8,54.0,30.02,South,182,2.0,10.0,40,0.00,,,0.00,251,weatherlink.com 1.10,2013-03-31 19:41:00,
2013-03-31 16:11:00,79.6,53.0,30.02,South,169,0.0,10.0,40,0.00,,,0.00,360,weatherlink.com 1.10,2013-03-31 20:11:00,
2013-03-31 16:26:00,79.6,53.0,30.01,WSW,242,1.0,9.0,40,0.00,,,0.00,285,weatherlink.com 1.10,2013-03-31 20:26:00,
2013-03-31 17:56:00,79.4,55.0,30.00,SE,133,1.0,5.0,43,0.00,,,0.00,104,weatherlink.com 1.10,2013-03-31 21:56:00,
2013-03-31 18:41:00,79.1,53.0,30.00,SSW,210,5.0,9.0,41,0.00,,,0.00,49,weatherlink.com 1.10,2013-03-31 22:41:00,
2013-03-31 18:56:00,78.8,53.0,30.00,SW,226,6.0,6.0,41,0.00,,,0.00,51,weatherlink.com 1.10,2013-03-31 22:56:00,
2013-03-31 19:11:00,78.1,54.0,30.00,SSW,204,3.0,11.0,44,0.00,,,0.00,39,weatherlink.com 1.10,2013-03-31 23:11:00,
2013-03-31 19:41:00,76.7,55.0,30.00,SSW,205,4.0,7.0,48,0.00,,,0.00,0,weatherlink.com 1.10,2013-03-31 23:41:00,
2013-03-31 19:56:00,76.0,56.0,30.00,SW,225,5.0,9.0,50,0.00,,,0.00,0,weatherlink.com 1.10,2013-03-31 23:56:00,
2013-03-31 20:11:00,75.3,56.0,30.00,SW,219,1.0,8.0,52,0.00,,,0.00,0,weatherlink.com 1.10,2013-04-01 00:11:00,
2013-03-31 20:26:00,74.4,56.0,30.00,SW,226,3.0,6.0,53,0.00,,,0.00,0,weatherlink.com 1.10,2013-04-01 00:26:00,
2013-03-31 20:56:00,72.7,56.0,30.01,SW,228,1.0,2.0,57,0.00,,,0.00,0,weatherlink.com 1.10,2013-04-01 00:56:00,
2013-03-31 21:11:00,71.8,56.0,30.01,SW,228,2.0,3.0,58,0.00,,,0.00,0,weatherlink.com 1.10,2013-04-01 01:11:00,
2013-03-31 21:26:00,71.2,56.0,30.01,SW,218,0.0,4.0,60,0.00,,,0.00,0,weatherlink.com 1.10,2013-04-01 01:26:00,
2013-03-31 21:41:00,70.4,57.0,30.02,SW,218,0.0,0.0,62,0.00,,,0.00,0,weatherlink.com 1.10,2013-04-01 01:41:00,
2013-03-31 21:56:00,69.4,57.0,30.02,SW,236,0.0,3.0,64,0.00,,,0.00,0,weatherlink.com 1.10,2013-04-01 01:56:00,
2013-03-31 22:11:00,68.5,56.0,30.02,SW,236,0.0,0.0,65,0.00,,,0.00,0,weatherlink.com 1.10,2013-04-01 02:11:00,
2013-03-31 22:26:00,67.3,56.0,30.02,SW,236,0.0,0.0,68,0.00,,,0.00,0,weatherlink.com 1.10,2013-04-01 02:26:00,
2013-03-31 22:41:00,66.3,57.0,30.03,SW,236,0.0,1.0,71,0.00,,,0.00,0,weatherlink.com 1.10,2013-04-01 02:41:00,
2013-03-31 22:56:00,65.4,57.0,30.03,SW,236,0.0,0.0,73,0.00,,,0.00,0,weatherlink.com 1.10,2013-04-01 02:56:00,
2013-03-31 23:11:00,64.8,56.0,30.04,SW,236,0.0,0.0,74,0.00,,,0.00,0,weatherlink.com 1.10,2013-04-01 03:11:00,
2013-03-31 23:26:00,64.1,56.0,30.04,SW,236,0.0,0.0,75,0.00,,,0.00,0,weatherlink.com 1.10,2013-04-01 03:26:00,
2013-03-31 23:41:00,63.7,56.0,30.04,SW,236,0.0,0.0,77,0.00,,,0.00,0,weatherlink.com 1.10,2013-04-01 03:41:00,
2013-03-31 23:56:00,63.3,57.0,30.03,SW,236,0.0,0.0,80,0.00,,,0.00,0,weatherlink.com 1.10,2013-04-01 03:56:00,